sensor_id;sensor_type;location;lat;lon;timestamp;pressure;altitude;pressure_sealevel;temperature;humidity
35704;BME280;21820;51.112;13.762;2023-07-20T00:01:59;98962.31;;;26.71;53.68
35704;BME280;21820;51.112;13.762;2023-07-20T00:04:24;98980.38;;;26.89;54.11
35704;BME280;21820;51.112;13.762;2023-07-20T00:06:50;98969.44;;;26.92;54.14
35704;BME280;21820;51.112;13.762;2023-07-20T00:09:15;98973.50;;;26.94;54.28
35704;BME280;21820;51.112;13.762;2023-07-20T00:11:48;98979.41;;;26.97;54.62
35704;BME280;21820;51.112;13.762;2023-07-20T00:14:14;98971.69;;;26.95;54.45
35704;BME280;21820;51.112;13.762;2023-07-20T00:16:40;98981.03;;;26.98;54.78
35704;BME280;21820;51.112;13.762;2023-07-20T00:19:05;98980.06;;;26.99;54.23
35704;BME280;21820;51.112;13.762;2023-07-20T00:21:32;98979.41;;;26.97;54.59
35704;BME280;21820;51.112;13.762;2023-07-20T00:23:57;98977.41;;;26.99;54.47
35704;BME280;21820;51.112;13.762;2023-07-20T00:26:22;98975.56;;;26.99;54.40
35704;BME280;21820;51.112;13.762;2023-07-20T00:28:49;98974.78;;;26.99;55.18
35704;BME280;21820;51.112;13.762;2023-07-20T00:31:15;98977.91;;;26.52;50.36
35704;BME280;21820;51.112;13.762;2023-07-20T00:33:40;98972.56;;;26.45;50.52
35704;BME280;21820;51.112;13.762;2023-07-20T00:36:06;98979.47;;;26.46;52.41
35704;BME280;21820;51.112;13.762;2023-07-20T00:38:31;98972.88;;;26.71;54.29
35704;BME280;21820;51.112;13.762;2023-07-20T00:40:57;98971.38;;;26.83;53.95
35704;BME280;21820;51.112;13.762;2023-07-20T00:43:22;98973.44;;;26.88;54.37
35704;BME280;21820;51.112;13.762;2023-07-20T00:45:47;98995.00;;;26.91;54.61
35704;BME280;21820;51.112;13.762;2023-07-20T00:48:13;98998.28;;;26.93;54.44
35704;BME280;21820;51.112;13.762;2023-07-20T00:50:39;98993.78;;;26.94;54.03
35704;BME280;21820;51.112;13.762;2023-07-20T00:53:05;98991.78;;;26.96;54.16
35704;BME280;21820;51.112;13.762;2023-07-20T00:55:31;98989.97;;;26.97;54.19
35704;BME280;21820;51.112;13.762;2023-07-20T00:57:57;98995.88;;;26.99;54.50
35704;BME280;21820;51.112;13.762;2023-07-20T01:00:23;99000.34;;;26.98;54.08
35704;BME280;21820;51.112;13.762;2023-07-20T01:02:48;98989.97;;;26.97;54.44
35704;BME280;21820;51.112;13.762;2023-07-20T01:05:14;98990.59;;;26.99;54.36
35704;BME280;21820;51.112;13.762;2023-07-20T01:07:57;98991.63;;;26.62;50.33
35704;BME280;21820;51.112;13.762;2023-07-20T01:10:40;98985.13;;;26.43;50.53
35704;BME280;21820;51.112;13.762;2023-07-20T01:13:07;98989.47;;;26.36;51.32
35704;BME280;21820;51.112;13.762;2023-07-20T01:15:34;98986.25;;;26.70;54.03
35704;BME280;21820;51.112;13.762;2023-07-20T01:18:00;98992.47;;;26.83;53.90
35704;BME280;21820;51.112;13.762;2023-07-20T01:20:32;98982.00;;;26.90;54.70
35704;BME280;21820;51.112;13.762;2023-07-20T01:31:35;99001.91;;;26.92;54.81
35704;BME280;21820;51.112;13.762;2023-07-20T01:34:02;99003.09;;;26.90;54.56
35704;BME280;21820;51.112;13.762;2023-07-20T01:36:33;99006.00;;;26.95;54.73
35704;BME280;21820;51.112;13.762;2023-07-20T01:38:59;99009.06;;;26.99;54.46
35704;BME280;21820;51.112;13.762;2023-07-20T01:41:25;99009.88;;;26.99;54.39
35704;BME280;21820;51.112;13.762;2023-07-20T01:43:51;99004.78;;;26.98;54.55
35704;BME280;21820;51.112;13.762;2023-07-20T01:46:16;99002.66;;;26.51;50.86
35704;BME280;21820;51.112;13.762;2023-07-20T01:48:42;98997.31;;;26.44;50.32
35704;BME280;21820;51.112;13.762;2023-07-20T01:51:07;99006.19;;;26.43;51.93
35704;BME280;21820;51.112;13.762;2023-07-20T01:53:33;99008.19;;;26.70;53.48
35704;BME280;21820;51.112;13.762;2023-07-20T01:55:58;98999.56;;;26.83;54.34
35704;BME280;21820;51.112;13.762;2023-07-20T01:58:23;99003.47;;;26.87;54.00
35704;BME280;21820;51.112;13.762;2023-07-20T02:00:49;99003.94;;;26.90;54.55
35704;BME280;21820;51.112;13.762;2023-07-20T02:03:15;99008.81;;;26.93;54.18
35704;BME280;21820;51.112;13.762;2023-07-20T02:05:43;98987.03;;;26.85;54.26
35704;BME280;21820;51.112;13.762;2023-07-20T02:08:09;98997.88;;;26.97;54.29
35704;BME280;21820;51.112;13.762;2023-07-20T02:10:35;99003.16;;;26.97;54.56
35704;BME280;21820;51.112;13.762;2023-07-20T02:13:00;98999.50;;;26.98;54.39
35704;BME280;21820;51.112;13.762;2023-07-20T02:15:26;98994.22;;;26.98;54.03
35704;BME280;21820;51.112;13.762;2023-07-20T02:17:52;99000.34;;;26.98;54.41
35704;BME280;21820;51.112;13.762;2023-07-20T02:20:18;98997.50;;;27.00;54.22
35704;BME280;21820;51.112;13.762;2023-07-20T02:22:44;98996.50;;;26.79;51.30
35704;BME280;21820;51.112;13.762;2023-07-20T02:25:10;98996.03;;;26.40;50.84
35704;BME280;21820;51.112;13.762;2023-07-20T02:27:35;99009.59;;;26.37;50.06
35704;BME280;21820;51.112;13.762;2023-07-20T02:30:01;99013.63;;;26.54;53.80
35704;BME280;21820;51.112;13.762;2023-07-20T02:32:28;99010.06;;;26.76;54.28
35704;BME280;21820;51.112;13.762;2023-07-20T02:34:53;99011.59;;;26.85;53.95
35704;BME280;21820;51.112;13.762;2023-07-20T02:37:19;98998.41;;;26.85;54.06
35704;BME280;21820;51.112;13.762;2023-07-20T02:39:44;99014.09;;;26.93;54.14
35704;BME280;21820;51.112;13.762;2023-07-20T02:42:09;98995.56;;;26.87;54.24
35704;BME280;21820;51.112;13.762;2023-07-20T02:44:35;99012.88;;;26.96;54.12
35704;BME280;21820;51.112;13.762;2023-07-20T02:47:00;99004.78;;;26.98;54.27
35704;BME280;21820;51.112;13.762;2023-07-20T02:49:26;99007.22;;;26.99;54.79
35704;BME280;21820;51.112;13.762;2023-07-20T02:51:51;99002.34;;;26.96;54.54
35704;BME280;21820;51.112;13.762;2023-07-20T02:54:17;99014.53;;;26.97;54.88
35704;BME280;21820;51.112;13.762;2023-07-20T02:56:42;99021.25;;;27.00;54.17
35704;BME280;21820;51.112;13.762;2023-07-20T02:59:08;99022.25;;;26.99;54.68
35704;BME280;21820;51.112;13.762;2023-07-20T03:01:33;99015.66;;;26.52;50.44
35704;BME280;21820;51.112;13.762;2023-07-20T03:03:58;99022.41;;;26.40;50.37
35704;BME280;21820;51.112;13.762;2023-07-20T03:06:24;99030.41;;;26.32;50.30
35704;BME280;21820;51.112;13.762;2023-07-20T03:08:49;99035.63;;;26.61;54.13
35704;BME280;21820;51.112;13.762;2023-07-20T03:11:17;99036.06;;;26.79;54.07
35704;BME280;21820;51.112;13.762;2023-07-20T03:13:44;99030.66;;;26.87;53.71
35704;BME280;21820;51.112;13.762;2023-07-20T03:16:10;99034.56;;;26.91;54.11
35704;BME280;21820;51.112;13.762;2023-07-20T03:18:40;99040.47;;;26.93;54.57
35704;BME280;21820;51.112;13.762;2023-07-20T03:21:07;99040.47;;;26.93;54.89
35704;BME280;21820;51.112;13.762;2023-07-20T03:23:32;99031.03;;;26.84;54.17
35704;BME280;21820;51.112;13.762;2023-07-20T03:25:58;99042.94;;;26.95;54.40
35704;BME280;21820;51.112;13.762;2023-07-20T03:28:23;99040.94;;;26.97;54.77
35704;BME280;21820;51.112;13.762;2023-07-20T03:30:58;99041.38;;;27.01;54.82
35704;BME280;21820;51.112;13.762;2023-07-20T03:33:30;99041.72;;;26.98;54.37
35704;BME280;21820;51.112;13.762;2023-07-20T03:35:56;99051.28;;;26.99;54.62
35704;BME280;21820;51.112;13.762;2023-07-20T03:38:22;99048.66;;;26.99;54.70
35704;BME280;21820;51.112;13.762;2023-07-20T03:40:51;99051.56;;;26.53;51.74
35704;BME280;21820;51.112;13.762;2023-07-20T03:43:17;99041.59;;;26.34;50.57
35704;BME280;21820;51.112;13.762;2023-07-20T03:45:43;99037.22;;;26.27;52.79
35704;BME280;21820;51.112;13.762;2023-07-20T03:48:08;99052.38;;;26.68;53.96
35704;BME280;21820;51.112;13.762;2023-07-20T03:50:34;99046.22;;;26.82;54.58
35704;BME280;21820;51.112;13.762;2023-07-20T03:52:59;99040.41;;;26.87;54.17
35704;BME280;21820;51.112;13.762;2023-07-20T03:55:24;99033.69;;;26.84;54.79
35704;BME280;21820;51.112;13.762;2023-07-20T03:57:50;99036.19;;;26.92;54.34
35704;BME280;21820;51.112;13.762;2023-07-20T04:00:16;99047.38;;;26.94;54.88
35704;BME280;21820;51.112;13.762;2023-07-20T04:02:42;99030.66;;;26.87;54.46
35704;BME280;21820;51.112;13.762;2023-07-20T04:05:07;99035.19;;;26.93;54.67
35704;BME280;21820;51.112;13.762;2023-07-20T04:07:33;99033.94;;;26.89;54.94
35704;BME280;21820;51.112;13.762;2023-07-20T04:09:58;99049.81;;;26.96;54.69
35704;BME280;21820;51.112;13.762;2023-07-20T04:12:23;99054.72;;;26.99;54.49
35704;BME280;21820;51.112;13.762;2023-07-20T04:14:49;99052.28;;;26.98;54.63
35704;BME280;21820;51.112;13.762;2023-07-20T04:17:14;99047.50;;;26.86;52.36
35704;BME280;21820;51.112;13.762;2023-07-20T04:19:39;99047.56;;;26.43;50.11
35704;BME280;21820;51.112;13.762;2023-07-20T04:22:05;99052.41;;;26.39;50.59
35704;BME280;21820;51.112;13.762;2023-07-20T04:24:30;99058.03;;;26.51;53.42
35704;BME280;21820;51.112;13.762;2023-07-20T04:26:55;99056.91;;;26.74;53.49
35704;BME280;21820;51.112;13.762;2023-07-20T04:29:21;99052.13;;;26.84;53.76
35704;BME280;21820;51.112;13.762;2023-07-20T04:31:46;99050.97;;;26.87;54.66
35704;BME280;21820;51.112;13.762;2023-07-20T04:34:11;99056.50;;;26.92;54.35
35704;BME280;21820;51.112;13.762;2023-07-20T04:36:37;99060.75;;;26.93;54.51
35704;BME280;21820;51.112;13.762;2023-07-20T04:39:03;99057.09;;;26.94;54.34
35704;BME280;21820;51.112;13.762;2023-07-20T04:41:29;99064.75;;;27.04;54.95
35704;BME280;21820;51.112;13.762;2023-07-20T04:43:54;99058.56;;;26.97;54.58
35704;BME280;21820;51.112;13.762;2023-07-20T04:46:20;99061.22;;;26.97;54.72
35704;BME280;21820;51.112;13.762;2023-07-20T04:48:46;99053.03;;;26.91;54.99
35704;BME280;21820;51.112;13.762;2023-07-20T04:51:13;99058.75;;;26.95;55.06
35704;BME280;21820;51.112;13.762;2023-07-20T04:53:38;99057.09;;;26.94;54.28
35704;BME280;21820;51.112;13.762;2023-07-20T04:56:04;99052.56;;;26.52;50.57
35704;BME280;21820;51.112;13.762;2023-07-20T04:58:29;99061.66;;;26.35;50.40
35704;BME280;21820;51.112;13.762;2023-07-20T05:00:54;99057.59;;;26.33;50.41
35704;BME280;21820;51.112;13.762;2023-07-20T05:03:20;99057.91;;;26.59;54.19
35704;BME280;21820;51.112;13.762;2023-07-20T05:05:48;99068.72;;;26.78;54.54
35704;BME280;21820;51.112;13.762;2023-07-20T05:08:14;99053.91;;;26.77;54.57
35704;BME280;21820;51.112;13.762;2023-07-20T05:10:39;99069.25;;;26.88;54.26
35704;BME280;21820;51.112;13.762;2023-07-20T05:13:04;99074.13;;;26.91;54.43
35704;BME280;21820;51.112;13.762;2023-07-20T05:15:30;99069.88;;;26.90;54.46
35704;BME280;21820;51.112;13.762;2023-07-20T05:17:57;99070.50;;;26.92;54.35
35704;BME280;21820;51.112;13.762;2023-07-20T05:20:22;99071.13;;;26.94;54.42
35704;BME280;21820;51.112;13.762;2023-07-20T05:22:48;99070.13;;;26.96;55.02
35704;BME280;21820;51.112;13.762;2023-07-20T05:25:13;99056.44;;;26.85;54.34
35704;BME280;21820;51.112;13.762;2023-07-20T05:27:39;99050.34;;;26.85;54.84
35704;BME280;21820;51.112;13.762;2023-07-20T05:30:07;99063.84;;;26.97;54.83
35704;BME280;21820;51.112;13.762;2023-07-20T05:32:33;99048.53;;;26.85;54.62
35704;BME280;21820;51.112;13.762;2023-07-20T05:34:58;99072.91;;;26.58;50.42
35704;BME280;21820;51.112;13.762;2023-07-20T05:37:24;99065.47;;;26.47;50.63
35704;BME280;21820;51.112;13.762;2023-07-20T05:39:49;99075.75;;;26.42;49.78
35704;BME280;21820;51.112;13.762;2023-07-20T05:42:15;99077.13;;;26.67;53.72
35704;BME280;21820;51.112;13.762;2023-07-20T05:44:40;99079.91;;;26.80;53.99
35704;BME280;21820;51.112;13.762;2023-07-20T05:47:06;99074.91;;;26.85;53.55
35704;BME280;21820;51.112;13.762;2023-07-20T05:49:31;99073.31;;;26.91;53.88
35704;BME280;21820;51.112;13.762;2023-07-20T05:51:57;99073.13;;;26.92;54.18
35704;BME280;21820;51.112;13.762;2023-07-20T05:54:24;99081.03;;;26.92;54.53
35704;BME280;21820;51.112;13.762;2023-07-20T05:56:49;99080.06;;;26.93;53.99
35704;BME280;21820;51.112;13.762;2023-07-20T05:59:15;99078.84;;;26.96;54.35
35704;BME280;21820;51.112;13.762;2023-07-20T06:01:41;99079.03;;;26.94;54.27
35704;BME280;21820;51.112;13.762;2023-07-20T06:04:06;99082.31;;;26.97;54.62
35704;BME280;21820;51.112;13.762;2023-07-20T06:06:32;99086.75;;;26.96;54.47
35704;BME280;21820;51.112;13.762;2023-07-20T06:08:57;99082.31;;;26.97;54.54
35704;BME280;21820;51.112;13.762;2023-07-20T06:11:22;99084.94;;;26.97;54.63
35704;BME280;21820;51.112;13.762;2023-07-20T06:13:48;99084.91;;;26.46;51.00
35704;BME280;21820;51.112;13.762;2023-07-20T06:16:13;99096.94;;;26.34;50.49
35704;BME280;21820;51.112;13.762;2023-07-20T06:18:38;99090.03;;;26.33;51.99
35704;BME280;21820;51.112;13.762;2023-07-20T06:21:04;99083.28;;;26.60;53.64
35704;BME280;21820;51.112;13.762;2023-07-20T06:23:32;99093.47;;;26.77;54.05
35704;BME280;21820;51.112;13.762;2023-07-20T06:25:58;99089.06;;;26.84;53.67
35704;BME280;21820;51.112;13.762;2023-07-20T06:28:23;99090.34;;;26.88;53.79
35704;BME280;21820;51.112;13.762;2023-07-20T06:30:49;99086.50;;;26.91;54.16
35704;BME280;21820;51.112;13.762;2023-07-20T06:33:15;99093.44;;;26.92;54.37
35704;BME280;21820;51.112;13.762;2023-07-20T06:35:41;99092.41;;;26.93;54.39
35704;BME280;21820;51.112;13.762;2023-07-20T06:38:08;99101.16;;;26.93;54.52
35704;BME280;21820;51.112;13.762;2023-07-20T06:40:33;99096.69;;;26.94;54.76
35704;BME280;21820;51.112;13.762;2023-07-20T06:42:58;99108.88;;;26.95;54.65
35704;BME280;21820;51.112;13.762;2023-07-20T06:45:24;99104.44;;;26.96;54.90
35704;BME280;21820;51.112;13.762;2023-07-20T06:47:49;99102.78;;;26.94;54.51
35704;BME280;21820;51.112;13.762;2023-07-20T06:50:15;99108.25;;;26.93;53.76
35704;BME280;21820;51.112;13.762;2023-07-20T06:52:40;99118.22;;;26.47;50.84
35704;BME280;21820;51.112;13.762;2023-07-20T06:55:06;99116.56;;;26.46;50.06
35704;BME280;21820;51.112;13.762;2023-07-20T06:57:32;99112.03;;;26.40;52.29
35704;BME280;21820;51.112;13.762;2023-07-20T06:59:57;99115.66;;;26.68;54.03
35704;BME280;21820;51.112;13.762;2023-07-20T07:02:23;99112.56;;;26.79;54.09
35704;BME280;21820;51.112;13.762;2023-07-20T07:04:48;99114.47;;;26.85;54.56
35704;BME280;21820;51.112;13.762;2023-07-20T07:07:14;99114.09;;;26.88;54.67
35704;BME280;21820;51.112;13.762;2023-07-20T07:09:40;99097.56;;;26.80;53.94
35704;BME280;21820;51.112;13.762;2023-07-20T07:12:06;99112.09;;;26.90;54.72
35704;BME280;21820;51.112;13.762;2023-07-20T07:14:32;99111.91;;;26.92;54.51
35704;BME280;21820;51.112;13.762;2023-07-20T07:16:57;99098.00;;;26.83;54.44
35704;BME280;21820;51.112;13.762;2023-07-20T07:19:22;99109.44;;;26.90;54.38
35704;BME280;21820;51.112;13.762;2023-07-20T07:21:48;99117.97;;;26.92;54.51
35704;BME280;21820;51.112;13.762;2023-07-20T07:24:13;99117.97;;;26.92;54.69
35704;BME280;21820;51.112;13.762;2023-07-20T07:26:38;99110.06;;;26.92;54.60
35704;BME280;21820;51.112;13.762;2023-07-20T07:29:04;99120.84;;;26.76;51.33
35704;BME280;21820;51.112;13.762;2023-07-20T07:31:30;99124.19;;;26.41;50.11
35704;BME280;21820;51.112;13.762;2023-07-20T07:33:56;99129.19;;;26.36;50.18
35704;BME280;21820;51.112;13.762;2023-07-20T07:36:21;99127.09;;;26.46;52.78
35704;BME280;21820;51.112;13.762;2023-07-20T07:38:46;99135.16;;;26.67;54.08
35704;BME280;21820;51.112;13.762;2023-07-20T07:41:12;99136.28;;;26.79;54.15
35704;BME280;21820;51.112;13.762;2023-07-20T07:43:37;99128.84;;;26.83;54.21
35704;BME280;21820;51.112;13.762;2023-07-20T07:46:04;99132.56;;;26.88;54.69
35704;BME280;21820;51.112;13.762;2023-07-20T07:48:29;99128.91;;;26.89;54.37
35704;BME280;21820;51.112;13.762;2023-07-20T07:50:54;99129.91;;;26.88;54.35
35704;BME280;21820;51.112;13.762;2023-07-20T07:53:20;99130.56;;;26.90;54.56
35704;BME280;21820;51.112;13.762;2023-07-20T07:55:47;99121.75;;;26.83;54.59
35704;BME280;21820;51.112;13.762;2023-07-20T07:58:13;99141.13;;;26.90;54.70
35704;BME280;21820;51.112;13.762;2023-07-20T08:00:39;99141.13;;;26.90;54.27
35704;BME280;21820;51.112;13.762;2023-07-20T08:03:06;99125.28;;;26.90;54.82
35704;BME280;21820;51.112;13.762;2023-07-20T08:05:32;99130.56;;;26.90;54.44
35704;BME280;21820;51.112;13.762;2023-07-20T08:07:57;99121.91;;;26.53;50.59
35704;BME280;21820;51.112;13.762;2023-07-20T08:10:22;99116.84;;;26.37;50.46
35704;BME280;21820;51.112;13.762;2023-07-20T08:12:48;99125.28;;;26.32;50.65
35704;BME280;21820;51.112;13.762;2023-07-20T08:15:13;99119.91;;;26.55;53.60
35704;BME280;21820;51.112;13.762;2023-07-20T08:17:41;99104.81;;;26.63;53.92
35704;BME280;21820;51.112;13.762;2023-07-20T08:20:07;99105.56;;;26.72;54.15
35704;BME280;21820;51.112;13.762;2023-07-20T08:22:35;99121.56;;;26.85;54.36
35704;BME280;21820;51.112;13.762;2023-07-20T08:25:00;99129.28;;;26.86;54.59
35704;BME280;21820;51.112;13.762;2023-07-20T08:27:25;99112.56;;;26.79;54.36
35704;BME280;21820;51.112;13.762;2023-07-20T08:29:51;99128.91;;;26.89;54.47
35704;BME280;21820;51.112;13.762;2023-07-20T08:32:16;99130.56;;;26.90;54.41
35704;BME280;21820;51.112;13.762;2023-07-20T08:34:42;99130.56;;;26.90;54.21
35704;BME280;21820;51.112;13.762;2023-07-20T08:37:07;99126.09;;;26.91;54.38
35704;BME280;21820;51.112;13.762;2023-07-20T08:39:35;99123.63;;;26.89;54.23
35704;BME280;21820;51.112;13.762;2023-07-20T08:42:01;99108.94;;;26.80;54.85
35704;BME280;21820;51.112;13.762;2023-07-20T08:44:29;99127.28;;;26.88;54.71
35704;BME280;21820;51.112;13.762;2023-07-20T08:46:57;99131.13;;;26.42;50.97
35704;BME280;21820;51.112;13.762;2023-07-20T08:49:22;99123.50;;;26.33;50.43
35704;BME280;21820;51.112;13.762;2023-07-20T08:51:48;99125.56;;;26.37;53.53
35704;BME280;21820;51.112;13.762;2023-07-20T08:54:14;99128.75;;;26.62;54.06
35704;BME280;21820;51.112;13.762;2023-07-20T08:56:40;99131.28;;;26.84;54.07
35704;BME280;21820;51.112;13.762;2023-07-20T08:59:08;99128.00;;;26.82;54.34
35704;BME280;21820;51.112;13.762;2023-07-20T09:01:35;99129.66;;;26.83;54.51
35704;BME280;21820;51.112;13.762;2023-07-20T09:04:01;99129.66;;;26.83;54.37
35704;BME280;21820;51.112;13.762;2023-07-20T09:06:27;99131.91;;;26.86;54.12
35704;BME280;21820;51.112;13.762;2023-07-20T09:08:52;99125.63;;;26.87;54.80
35704;BME280;21820;51.112;13.762;2023-07-20T09:11:17;99130.91;;;26.87;54.69
35704;BME280;21820;51.112;13.762;2023-07-20T09:13:43;99132.56;;;26.88;54.56
35704;BME280;21820;51.112;13.762;2023-07-20T09:16:09;99133.72;;;26.86;54.76
35704;BME280;21820;51.112;13.762;2023-07-20T09:18:38;99130.91;;;26.87;54.56
35704;BME280;21820;51.112;13.762;2023-07-20T09:21:05;99126.47;;;26.88;55.17
35704;BME280;21820;51.112;13.762;2023-07-20T09:23:37;99121.50;;;26.49;51.86
35704;BME280;21820;51.112;13.762;2023-07-20T09:26:11;99125.28;;;26.32;50.90
35704;BME280;21820;51.112;13.762;2023-07-20T09:28:57;99123.72;;;26.38;51.17
35704;BME280;21820;51.112;13.762;2023-07-20T09:31:23;99137.81;;;26.59;54.04
35704;BME280;21820;51.112;13.762;2023-07-20T09:33:49;99123.84;;;26.73;53.57
35704;BME280;21820;51.112;13.762;2023-07-20T09:36:14;99128.09;;;26.89;53.95
35704;BME280;21820;51.112;13.762;2023-07-20T09:38:41;99124.38;;;26.83;54.52
35704;BME280;21820;51.112;13.762;2023-07-20T09:41:12;99130.28;;;26.85;54.28
35704;BME280;21820;51.112;13.762;2023-07-20T09:43:38;99112.28;;;26.74;54.28
35704;BME280;21820;51.112;13.762;2023-07-20T09:46:04;99137.56;;;26.83;54.35
35704;BME280;21820;51.112;13.762;2023-07-20T09:48:30;99132.03;;;26.78;54.77
35704;BME280;21820;51.112;13.762;2023-07-20T09:50:56;99144.09;;;26.87;54.73
35704;BME280;21820;51.112;13.762;2023-07-20T09:53:24;99126.13;;;26.76;54.55
35704;BME280;21820;51.112;13.762;2023-07-20T09:55:52;99149.38;;;26.87;54.89
35704;BME280;21820;51.112;13.762;2023-07-20T09:58:18;99155.66;;;26.86;54.65
35704;BME280;21820;51.112;13.762;2023-07-20T10:00:45;99169.69;;;26.72;51.95
35704;BME280;21820;51.112;13.762;2023-07-20T10:03:20;99144.81;;;26.23;50.49
35704;BME280;21820;51.112;13.762;2023-07-20T10:05:48;99162.91;;;26.26;50.66
35704;BME280;21820;51.112;13.762;2023-07-20T10:08:16;99171.63;;;26.41;53.70
35704;BME280;21820;51.112;13.762;2023-07-20T10:10:44;99153.31;;;26.62;53.63
35704;BME280;21820;51.112;13.762;2023-07-20T10:13:17;99166.50;;;26.77;54.51
35704;BME280;21820;51.112;13.762;2023-07-20T10:16:01;99136.09;;;26.81;55.02
35704;BME280;21820;51.112;13.762;2023-07-20T10:18:35;99137.22;;;26.72;54.52
35704;BME280;21820;51.112;13.762;2023-07-20T10:21:04;99151.59;;;26.84;54.72
35704;BME280;21820;51.112;13.762;2023-07-20T10:23:32;99159.31;;;26.85;54.99
35704;BME280;21820;51.112;13.762;2023-07-20T10:25:58;99160.09;;;26.86;54.38
35704;BME280;21820;51.112;13.762;2023-07-20T10:28:25;99167.03;;;26.87;55.09
35704;BME280;21820;51.112;13.762;2023-07-20T10:30:50;99161.75;;;26.87;54.56
35704;BME280;21820;51.112;13.762;2023-07-20T10:33:17;99164.41;;;26.87;54.75
35704;BME280;21820;51.112;13.762;2023-07-20T10:35:54;99154.84;;;26.86;55.09
35704;BME280;21820;51.112;13.762;2023-07-20T10:38:20;99161.75;;;26.87;54.86
35704;BME280;21820;51.112;13.762;2023-07-20T10:40:54;99157.38;;;26.36;50.95
35704;BME280;21820;51.112;13.762;2023-07-20T10:43:20;99156.28;;;26.30;50.32
35704;BME280;21820;51.112;13.762;2023-07-20T10:45:50;99155.72;;;26.35;53.88
35704;BME280;21820;51.112;13.762;2023-07-20T10:48:18;99146.56;;;26.60;54.14
35704;BME280;21820;51.112;13.762;2023-07-20T10:50:45;99134.19;;;26.60;54.68
35704;BME280;21820;51.112;13.762;2023-07-20T10:55:37;99155.56;;;26.80;54.11
35704;BME280;21820;51.112;13.762;2023-07-20T10:58:13;99151.75;;;26.82;54.51
35704;BME280;21820;51.112;13.762;2023-07-20T11:01:00;99153.03;;;26.86;54.62
35704;BME280;21820;51.112;13.762;2023-07-20T11:03:39;99143.03;;;26.82;54.64
35704;BME280;21820;51.112;13.762;2023-07-20T11:08:54;99146.13;;;26.85;54.64
35704;BME280;21820;51.112;13.762;2023-07-20T11:11:24;99149.75;;;26.84;54.64
35704;BME280;21820;51.112;13.762;2023-07-20T11:14:03;99130.28;;;26.85;55.35
35704;BME280;21820;51.112;13.762;2023-07-20T11:16:33;99133.28;;;26.82;54.91
35704;BME280;21820;51.112;13.762;2023-07-20T11:18:59;99132.84;;;26.35;50.77
35704;BME280;21820;51.112;13.762;2023-07-20T11:21:25;99141.09;;;26.32;50.36
35704;BME280;21820;51.112;13.762;2023-07-20T11:23:52;99129.38;;;26.35;53.24
35704;BME280;21820;51.112;13.762;2023-07-20T11:26:18;99130.91;;;26.58;53.63
35704;BME280;21820;51.112;13.762;2023-07-20T11:28:48;99111.09;;;26.62;53.98
35704;BME280;21820;51.112;13.762;2023-07-20T11:31:14;99128.75;;;26.76;54.68
35704;BME280;21820;51.112;13.762;2023-07-20T11:33:41;99132.03;;;26.78;54.70
35704;BME280;21820;51.112;13.762;2023-07-20T11:36:08;99127.75;;;26.77;54.30
35704;BME280;21820;51.112;13.762;2023-07-20T11:38:34;99128.84;;;26.83;54.65
35704;BME280;21820;51.112;13.762;2023-07-20T11:40:59;99140.22;;;26.83;54.17
35704;BME280;21820;51.112;13.762;2023-07-20T11:43:25;99129.66;;;26.83;54.84
35704;BME280;21820;51.112;13.762;2023-07-20T11:45:51;99124.38;;;26.83;54.60
35704;BME280;21820;51.112;13.762;2023-07-20T11:48:16;99119.94;;;26.84;55.13
35704;BME280;21820;51.112;13.762;2023-07-20T11:50:42;99126.00;;;26.84;55.14
35704;BME280;21820;51.112;13.762;2023-07-20T11:53:08;99125.22;;;26.84;54.66
35704;BME280;21820;51.112;13.762;2023-07-20T11:55:34;99126.66;;;26.57;52.06
35704;BME280;21820;51.112;13.762;2023-07-20T11:58:03;99116.38;;;26.33;50.59
35704;BME280;21820;51.112;13.762;2023-07-20T12:00:29;99116.84;;;26.22;50.46
35704;BME280;21820;51.112;13.762;2023-07-20T12:02:54;99128.13;;;26.45;53.74
35704;BME280;21820;51.112;13.762;2023-07-20T12:05:22;99132.19;;;26.62;54.46
35704;BME280;21820;51.112;13.762;2023-07-20T12:07:49;99137.59;;;26.69;53.88
35704;BME280;21820;51.112;13.762;2023-07-20T12:10:16;99131.56;;;26.75;54.57
35704;BME280;21820;51.112;13.762;2023-07-20T12:12:43;99137.50;;;26.77;54.57
35704;BME280;21820;51.112;13.762;2023-07-20T12:15:22;99130.41;;;26.77;55.03
35704;BME280;21820;51.112;13.762;2023-07-20T12:17:52;99149.09;;;26.82;55.18
35704;BME280;21820;51.112;13.762;2023-07-20T12:22:56;99148.31;;;26.82;55.00
35704;BME280;21820;51.112;13.762;2023-07-20T12:25:22;99146.47;;;26.82;54.65
35704;BME280;21820;51.112;13.762;2023-07-20T12:27:48;99140.31;;;26.75;55.13
35704;BME280;21820;51.112;13.762;2023-07-20T12:30:13;99155.22;;;26.83;54.89
35704;BME280;21820;51.112;13.762;2023-07-20T12:32:39;99155.22;;;26.83;54.95
35704;BME280;21820;51.112;13.762;2023-07-20T12:35:05;99154.66;;;26.44;51.17
35704;BME280;21820;51.112;13.762;2023-07-20T12:37:31;99152.81;;;26.30;50.43
35704;BME280;21820;51.112;13.762;2023-07-20T12:39:56;99157.19;;;26.23;50.24
35704;BME280;21820;51.112;13.762;2023-07-20T12:42:22;99153.56;;;26.53;53.98
35704;BME280;21820;51.112;13.762;2023-07-20T12:44:49;99157.88;;;26.68;54.16
35704;BME280;21820;51.112;13.762;2023-07-20T12:47:14;99136.47;;;26.63;53.85
35704;BME280;21820;51.112;13.762;2023-07-20T12:49:39;99161.22;;;26.77;54.38
35704;BME280;21820;51.112;13.762;2023-07-20T12:52:05;99158.22;;;26.80;54.13
35704;BME280;21820;51.112;13.762;2023-07-20T12:54:31;99167.56;;;26.82;54.90
35704;BME280;21820;51.112;13.762;2023-07-20T12:56:56;99163.31;;;26.81;54.29
35704;BME280;21820;51.112;13.762;2023-07-20T12:59:21;99159.66;;;26.82;54.44
35704;BME280;21820;51.112;13.762;2023-07-20T13:01:47;99152.88;;;26.73;54.83
35704;BME280;21820;51.112;13.762;2023-07-20T13:04:12;99175.47;;;26.82;54.89